Time;durP1;ratioP1;P1;durP2;ratioP2;P2;SDS_P1;SDS_P2;PMS_P1;PMS_P2;Temp;Humidity;BMP_temperature;BMP_pressure;BME280_temperature;BME280_humidity;BME280_pressure;Samples;Min_cycle;Max_cycle;Signal;HPM_P1;HPM_P2
2021/12/26 00:00:29;;;;;;;;;;;1.90;1.00;;;;;;5034459;28;20408;-80
2021/12/26 00:02:55;;;;;;;;;;;1.90;1.00;;;;;;5038629;28;19924;-79
2021/12/26 00:05:21;;;;;;;;;;;1.80;1.00;;;;;;5038116;28;19912;-80
2021/12/26 00:07:46;;;;;;;;;;;1.80;1.00;;;;;;5039530;28;19909;-80
2021/12/26 00:10:14;;;;;;;;;;;1.80;1.00;;;;;;5036795;28;19917;-79
2021/12/26 00:12:40;;;;;;;;;;;1.80;1.00;;;;;;5036024;28;19967;-80
2021/12/26 00:15:06;;;;;;;;;;;1.80;1.00;;;;;;5037118;28;19913;-80
2021/12/26 00:17:31;;;;;;;;;;;1.80;1.00;;;;;;5054277;28;20389;-80
2021/12/26 00:19:57;;;;;;;;;;;1.80;1.00;;;;;;5037247;28;19909;-80
2021/12/26 00:22:22;;;;;;;;;;;1.80;1.00;;;;;;5036715;28;19912;-79
2021/12/26 00:24:48;;;;;;;;;;;1.80;1.00;;;;;;5037460;28;19909;-79
2021/12/26 00:27:14;;;;;;;;;;;1.80;1.00;;;;;;5019090;28;19948;-80
2021/12/26 00:29:40;;;;;;;;;;;1.80;1.00;;;;;;5036332;28;19971;-80
2021/12/26 00:32:06;;;;;;;;;;;1.80;1.00;;;;;;5053102;28;20369;-80
2021/12/26 00:34:32;;;;;;;;;;;1.80;1.00;;;;;;5037274;28;20002;-80
2021/12/26 00:36:57;;;;;;;;;;;1.80;1.00;;;;;;5038488;28;19909;-80
2021/12/26 00:39:23;;;;;;;;;;;1.80;1.00;;;;;;5037697;28;19967;-80
2021/12/26 00:41:48;;;;;;;;;;;1.80;1.00;;;;;;5038052;28;19915;-80
2021/12/26 00:44:14;;;;;;;;;;;1.70;1.00;;;;;;5033199;28;19917;-80
2021/12/26 00:46:39;;;;;;;;;;;1.70;1.00;;;;;;5030640;28;19995;-78
2021/12/26 00:49:05;;;;;;;;;;;1.70;1.00;;;;;;5026089;28;19913;-79
2021/12/26 00:51:30;;;;;;;;;;;1.70;1.00;;;;;;5036918;28;20350;-80
2021/12/26 00:53:56;;;;;;;;;;;1.70;1.00;;;;;;5045444;28;19913;-80
2021/12/26 00:56:22;;;;;;;;;;;1.70;1.00;;;;;;5054179;28;19916;-80
2021/12/26 00:58:47;;;;;;;;;;;1.70;1.00;;;;;;5051828;28;19938;-80
2021/12/26 01:01:14;;;;;;;;;;;1.60;1.00;;;;;;5053498;28;19917;-79
2021/12/26 01:03:39;;;;;;;;;;;1.60;1.00;;;;;;5040826;28;19928;-80
2021/12/26 01:06:05;;;;;;;;;;;1.60;1.00;;;;;;5052911;28;19913;-80
2021/12/26 01:08:36;;;;;;;;;;;1.50;1.00;;;;;;5037172;28;19959;-79
2021/12/26 01:11:06;;;;;;;;;;;1.50;1.00;;;;;;5037355;28;19939;-80
2021/12/26 01:13:35;;;;;;;;;;;1.50;1.00;;;;;;5053883;28;20003;-79
2021/12/26 01:16:02;;;;;;;;;;;1.50;1.00;;;;;;5036563;28;20392;-80
2021/12/26 01:18:29;;;;;;;;;;;1.40;1.00;;;;;;5049753;28;20052;-80
2021/12/26 01:21:00;;;;;;;;;;;1.40;1.00;;;;;;5034384;28;19920;-80
2021/12/26 01:23:27;;;;;;;;;;;1.40;1.00;;;;;;5053095;28;20412;-80
2021/12/26 01:25:52;;;;;;;;;;;1.40;1.00;;;;;;5037550;28;19967;-80
2021/12/26 01:28:18;;;;;;;;;;;1.40;1.00;;;;;;5034440;28;19913;-80
2021/12/26 01:30:44;;;;;;;;;;;1.40;1.00;;;;;;5036641;28;19924;-80
2021/12/26 01:33:11;;;;;;;;;;;1.40;1.00;;;;;;5029366;28;19920;-80
2021/12/26 01:35:37;;;;;;;;;;;1.50;1.00;;;;;;5052331;28;19920;-81
2021/12/26 01:38:02;;;;;;;;;;;1.50;1.00;;;;;;5032435;28;19913;-80
2021/12/26 01:40:28;;;;;;;;;;;1.50;1.00;;;;;;5041270;28;19913;-80
2021/12/26 01:42:54;;;;;;;;;;;1.50;1.00;;;;;;5040256;28;19939;-79
2021/12/26 01:45:19;;;;;;;;;;;1.60;1.00;;;;;;5033228;28;19959;-80
2021/12/26 01:47:45;;;;;;;;;;;1.60;1.00;;;;;;5058323;28;19917;-80
2021/12/26 01:50:11;;;;;;;;;;;1.60;1.00;;;;;;5027169;28;19924;-80
2021/12/26 01:52:37;;;;;;;;;;;1.60;1.00;;;;;;5039697;28;19913;-80
2021/12/26 01:55:22;;;;;;;;;;;1.60;1.00;;;;;;5050561;28;20039;-80
2021/12/26 01:57:49;;;;;;;;;;;1.60;1.00;;;;;;5034541;28;19924;-80
2021/12/26 02:00:15;;;;;;;;;;;1.50;1.00;;;;;;5041241;28;19924;-80
2021/12/26 02:02:40;;;;;;;;;;;1.50;1.00;;;;;;5054270;28;19916;-80
2021/12/26 02:05:06;;;;;;;;;;;1.40;1.00;;;;;;5040221;28;19913;-80
2021/12/26 02:07:31;;;;;;;;;;;1.40;8.20;;;;;;5040588;28;19919;-80
2021/12/26 02:09:57;;;;;;;;;;;1.40;69.60;;;;;;5044423;28;20300;-80
2021/12/26 02:12:22;;;;;;;;;;;1.30;99.90;;;;;;5040465;28;19912;-80
2021/12/26 02:14:48;;;;;;;;;;;1.30;99.90;;;;;;5040920;28;20657;-80
2021/12/26 02:17:16;;;;;;;;;;;1.20;99.90;;;;;;5037868;28;19923;-80
2021/12/26 02:19:42;;;;;;;;;;;1.20;99.90;;;;;;5049788;28;19913;-80
2021/12/26 02:22:16;;;;;;;;;;;1.10;99.90;;;;;;5055734;28;19988;-80
2021/12/26 02:27:32;;;;;;;;;;;1.10;99.90;;;;;;5064072;28;19920;-80
2021/12/26 02:30:04;;;;;;;;;;;1.10;99.90;;;;;;5063094;28;19921;-80
2021/12/26 02:32:30;;;;;;;;;;;1.00;99.90;;;;;;5057633;28;19913;-80
2021/12/26 02:34:57;;;;;;;;;;;1.00;99.90;;;;;;5055769;28;20403;-80
2021/12/26 02:37:22;;;;;;;;;;;1.00;99.90;;;;;;5039115;28;19920;-80
2021/12/26 02:39:48;;;;;;;;;;;1.00;99.90;;;;;;5057649;28;19909;-80
2021/12/26 02:42:16;;;;;;;;;;;0.90;99.90;;;;;;5038623;28;19921;-80
2021/12/26 02:44:42;;;;;;;;;;;0.90;99.90;;;;;;5029414;28;19913;-80
2021/12/26 02:47:07;;;;;;;;;;;0.90;99.90;;;;;;5054928;28;20333;-80
2021/12/26 02:49:33;;;;;;;;;;;0.90;99.90;;;;;;5048971;28;19924;-80
2021/12/26 02:51:58;;;;;;;;;;;0.90;1.00;;;;;;5038436;28;19921;-80
2021/12/26 02:54:25;;;;;;;;;;;0.90;1.00;;;;;;5055024;28;19912;-80
2021/12/26 02:56:50;;;;;;;;;;;0.90;1.00;;;;;;5057487;28;19912;-80
2021/12/26 02:59:16;;;;;;;;;;;0.90;1.00;;;;;;5037213;28;19917;-80
2021/12/26 03:01:41;;;;;;;;;;;0.90;1.00;;;;;;5030103;28;19985;-80
2021/12/26 03:04:09;;;;;;;;;;;0.90;1.00;;;;;;5053656;28;19919;-80
2021/12/26 03:09:07;;;;;;;;;;;1.00;1.00;;;;;;5048642;28;19917;-80
2021/12/26 03:11:32;;;;;;;;;;;1.00;1.00;;;;;;5039655;28;20377;-80
2021/12/26 03:13:58;;;;;;;;;;;1.00;1.00;;;;;;5047080;28;19917;-80
2021/12/26 03:16:23;;;;;;;;;;;1.10;99.90;;;;;;5056875;28;20264;-80
2021/12/26 03:18:49;;;;;;;;;;;1.10;99.90;;;;;;5056362;28;19920;-80
2021/12/26 03:21:14;;;;;;;;;;;1.10;99.90;;;;;;5057353;28;20368;-80
2021/12/26 03:23:40;;;;;;;;;;;1.20;99.90;;;;;;5055876;28;19917;-80
2021/12/26 03:26:06;;;;;;;;;;;1.20;99.90;;;;;;5056016;28;19920;-80
2021/12/26 03:28:32;;;;;;;;;;;1.30;99.90;;;;;;5052696;28;19913;-80
2021/12/26 03:30:59;;;;;;;;;;;1.30;99.90;;;;;;5054473;28;19923;-80
2021/12/26 03:33:25;;;;;;;;;;;1.30;99.90;;;;;;5057065;28;20455;-81
2021/12/26 03:35:50;;;;;;;;;;;1.40;99.90;;;;;;5056379;28;19913;-80
2021/12/26 03:38:16;;;;;;;;;;;1.40;99.90;;;;;;5055463;28;20369;-80
2021/12/26 03:40:41;;;;;;;;;;;1.40;99.90;;;;;;5050977;28;19910;-80
2021/12/26 03:43:08;;;;;;;;;;;1.50;99.90;;;;;;5055149;28;19913;-80
2021/12/26 03:45:34;;;;;;;;;;;1.50;99.90;;;;;;5034807;28;19920;-80
2021/12/26 03:47:59;;;;;;;;;;;1.50;99.90;;;;;;5039391;28;20384;-80
2021/12/26 03:50:28;;;;;;;;;;;1.60;99.90;;;;;;5040215;28;19913;-80
2021/12/26 03:52:56;;;;;;;;;;;1.60;99.90;;;;;;5051984;28;20361;-80
2021/12/26 03:55:23;;;;;;;;;;;1.60;99.90;;;;;;5053503;28;19913;-80
2021/12/26 03:57:48;;;;;;;;;;;1.60;99.90;;;;;;5033438;28;19922;-80
2021/12/26 04:00:14;;;;;;;;;;;1.60;99.90;;;;;;5048782;28;20292;-80
2021/12/26 04:02:41;;;;;;;;;;;1.60;99.90;;;;;;5053016;28;19975;-81
2021/12/26 04:05:06;;;;;;;;;;;1.70;99.90;;;;;;5032521;28;19959;-80
2021/12/26 04:07:32;;;;;;;;;;;1.70;99.90;;;;;;5033709;28;19912;-80
2021/12/26 04:09:57;;;;;;;;;;;1.70;99.90;;;;;;5055561;28;19913;-80
2021/12/26 04:12:23;;;;;;;;;;;1.70;99.90;;;;;;5047400;28;19979;-80
2021/12/26 04:14:48;;;;;;;;;;;1.70;99.90;;;;;;5036690;28;19995;-80
2021/12/26 04:17:14;;;;;;;;;;;1.70;99.90;;;;;;5055677;28;19988;-80
2021/12/26 04:19:39;;;;;;;;;;;1.70;99.90;;;;;;5036699;28;19920;-80
2021/12/26 04:22:08;;;;;;;;;;;1.70;99.90;;;;;;5056585;28;19919;-80
2021/12/26 04:24:33;;;;;;;;;;;1.80;99.90;;;;;;5050775;28;19923;-80
2021/12/26 04:26:59;;;;;;;;;;;1.80;99.90;;;;;;5055524;28;19909;-80
2021/12/26 04:29:24;;;;;;;;;;;1.80;99.90;;;;;;5037776;28;20261;-80
2021/12/26 04:31:50;;;;;;;;;;;1.80;99.90;;;;;;5054999;28;19927;-80
2021/12/26 04:34:15;;;;;;;;;;;1.80;99.90;;;;;;5035444;28;19935;-80
2021/12/26 04:36:41;;;;;;;;;;;1.80;99.90;;;;;;5030622;28;19912;-80
2021/12/26 04:39:06;;;;;;;;;;;1.80;99.90;;;;;;5032471;28;20438;-80
2021/12/26 04:41:32;;;;;;;;;;;1.80;99.90;;;;;;5037686;28;19927;-80
2021/12/26 04:43:57;;;;;;;;;;;1.90;99.90;;;;;;5054668;28;19927;-80
2021/12/26 04:46:23;;;;;;;;;;;1.90;99.90;;;;;;5054952;28;19917;-80
2021/12/26 04:48:48;;;;;;;;;;;1.90;99.90;;;;;;5032714;28;19916;-80
2021/12/26 04:51:14;;;;;;;;;;;1.90;99.90;;;;;;5051417;28;19917;-80
2021/12/26 04:53:40;;;;;;;;;;;2.00;99.90;;;;;;5053993;28;19913;-80
2021/12/26 04:56:05;;;;;;;;;;;2.00;99.90;;;;;;5054324;28;19920;-80
2021/12/26 04:58:31;;;;;;;;;;;2.00;99.90;;;;;;5054295;28;20288;-80
2021/12/26 05:00:57;;;;;;;;;;;2.00;99.90;;;;;;5036034;28;19920;-80
2021/12/26 05:03:22;;;;;;;;;;;2.00;99.90;;;;;;5046293;28;19940;-80
2021/12/26 05:05:48;;;;;;;;;;;2.00;99.90;;;;;;5036423;28;19921;-80
2021/12/26 05:08:13;;;;;;;;;;;2.00;99.90;;;;;;5040078;28;19923;-80
2021/12/26 05:10:39;;;;;;;;;;;2.00;99.90;;;;;;5036053;28;19955;-80
2021/12/26 05:13:05;;;;;;;;;;;2.00;99.90;;;;;;5036639;28;19944;-80
2021/12/26 05:15:31;;;;;;;;;;;2.00;99.90;;;;;;5044261;28;19974;-80
2021/12/26 05:17:56;;;;;;;;;;;2.00;99.90;;;;;;5037498;28;19916;-80
2021/12/26 05:20:22;;;;;;;;;;;2.00;99.90;;;;;;5037935;28;20003;-80
2021/12/26 05:22:49;;;;;;;;;;;1.90;99.90;;;;;;5045733;28;19921;-80
2021/12/26 05:25:15;;;;;;;;;;;1.90;99.90;;;;;;5054296;28;19935;-80
2021/12/26 05:27:40;;;;;;;;;;;1.90;99.90;;;;;;5037366;28;19913;-80
2021/12/26 05:30:07;;;;;;;;;;;1.90;99.90;;;;;;5026702;28;19917;-80
2021/12/26 05:32:33;;;;;;;;;;;1.90;99.90;;;;;;5041925;28;19962;-80
2021/12/26 05:34:58;;;;;;;;;;;1.90;99.90;;;;;;5031413;28;19935;-80
2021/12/26 05:37:23;;;;;;;;;;;1.90;99.90;;;;;;5049689;28;19916;-80
2021/12/26 05:39:49;;;;;;;;;;;1.90;99.90;;;;;;5039814;28;19981;-80
2021/12/26 05:42:16;;;;;;;;;;;1.90;99.90;;;;;;5063026;28;19917;-80
2021/12/26 05:44:42;;;;;;;;;;;1.90;99.90;;;;;;5038154;28;19909;-80
2021/12/26 05:47:08;;;;;;;;;;;1.90;99.90;;;;;;5035597;28;19913;-80
2021/12/26 05:49:33;;;;;;;;;;;1.90;99.90;;;;;;5052812;28;19975;-80
2021/12/26 05:51:58;;;;;;;;;;;1.80;99.90;;;;;;5048186;28;19917;-80
2021/12/26 05:54:24;;;;;;;;;;;1.90;99.90;;;;;;5055546;28;19921;-80
2021/12/26 05:56:49;;;;;;;;;;;1.90;99.90;;;;;;5028705;28;19916;-80
2021/12/26 05:59:15;;;;;;;;;;;1.90;99.90;;;;;;5031875;28;20345;-80
2021/12/26 06:01:40;;;;;;;;;;;1.90;99.90;;;;;;5033715;28;19914;-80
2021/12/26 06:04:06;;;;;;;;;;;1.90;99.90;;;;;;5055997;28;19921;-80
2021/12/26 06:06:31;;;;;;;;;;;1.90;99.90;;;;;;5041751;28;19924;-80
2021/12/26 06:08:57;;;;;;;;;;;1.90;99.90;;;;;;5045719;28;19932;-80
2021/12/26 06:11:23;;;;;;;;;;;1.90;99.90;;;;;;5050936;28;19921;-80
2021/12/26 06:13:48;;;;;;;;;;;2.00;99.90;;;;;;5045334;28;19917;-80
2021/12/26 06:16:14;;;;;;;;;;;1.90;99.90;;;;;;5036966;28;19912;-80
2021/12/26 06:18:39;;;;;;;;;;;2.00;99.90;;;;;;5052873;28;19919;-80
2021/12/26 06:21:05;;;;;;;;;;;1.90;99.90;;;;;;5036117;28;19924;-81
2021/12/26 06:23:30;;;;;;;;;;;2.00;99.90;;;;;;5057381;28;20397;-81
2021/12/26 06:25:56;;;;;;;;;;;1.90;99.90;;;;;;5050056;28;19913;-81
2021/12/26 06:28:21;;;;;;;;;;;2.00;99.90;;;;;;5038326;28;19920;-80
2021/12/26 06:30:47;;;;;;;;;;;2.00;99.90;;;;;;5058344;28;19916;-80
2021/12/26 06:33:12;;;;;;;;;;;2.00;99.90;;;;;;5050898;28;19920;-81
2021/12/26 06:35:37;;;;;;;;;;;2.00;99.90;;;;;;5040261;28;20404;-80
2021/12/26 06:38:03;;;;;;;;;;;2.00;99.90;;;;;;5055816;28;19998;-81
2021/12/26 06:40:28;;;;;;;;;;;2.00;99.90;;;;;;5035667;28;19984;-80
2021/12/26 06:42:54;;;;;;;;;;;2.00;99.90;;;;;;5031341;28;19920;-81
2021/12/26 06:45:19;;;;;;;;;;;2.00;99.90;;;;;;5056618;28;19913;-80
2021/12/26 06:47:50;;;;;;;;;;;2.00;99.90;;;;;;5055531;28;20369;-80
2021/12/26 06:50:16;;;;;;;;;;;2.00;99.90;;;;;;5035321;28;19917;-80
2021/12/26 06:52:41;;;;;;;;;;;2.00;99.90;;;;;;5034581;28;19913;-80
2021/12/26 06:55:07;;;;;;;;;;;2.00;99.90;;;;;;5035996;28;19935;-79
2021/12/26 06:57:33;;;;;;;;;;;2.00;99.90;;;;;;5048911;28;19917;-80
2021/12/26 06:59:58;;;;;;;;;;;2.10;99.90;;;;;;5035139;28;20031;-80
2021/12/26 07:02:24;;;;;;;;;;;2.10;99.90;;;;;;5051295;28;19917;-80
2021/12/26 07:04:49;;;;;;;;;;;2.10;99.90;;;;;;5036909;28;19913;-80
2021/12/26 07:07:15;;;;;;;;;;;2.10;99.90;;;;;;5052657;28;19913;-80
2021/12/26 07:12:13;;;;;;;;;;;2.20;1.00;;;;;;5093023;27;1961087;-79
2021/12/26 07:14:39;;;;;;;;;;;2.30;99.90;;;;;;5152281;27;20321;-80
2021/12/26 07:17:05;;;;;;;;;;;2.30;99.90;;;;;;5133396;27;19911;-81
2021/12/26 07:19:30;;;;;;;;;;;2.40;99.90;;;;;;5150987;27;19934;-79
2021/12/26 07:21:56;;;;;;;;;;;2.40;99.90;;;;;;5124475;27;19915;-81
2021/12/26 07:24:21;;;;;;;;;;;2.40;99.90;;;;;;5125532;27;20044;-79
2021/12/26 07:26:47;;;;;;;;;;;2.40;99.90;;;;;;5135031;27;19919;-79
2021/12/26 07:29:12;;;;;;;;;;;2.40;99.90;;;;;;5144937;27;20018;-79
2021/12/26 07:31:38;;;;;;;;;;;2.40;99.90;;;;;;5140236;27;20294;-80
2021/12/26 07:34:03;;;;;;;;;;;2.40;99.90;;;;;;5142539;27;19907;-79
2021/12/26 07:36:29;;;;;;;;;;;2.40;99.90;;;;;;5149205;27;19911;-79
2021/12/26 07:38:54;;;;;;;;;;;2.40;99.90;;;;;;5136042;27;19921;-80
2021/12/26 07:41:20;;;;;;;;;;;2.40;99.90;;;;;;5153402;27;19919;-79
2021/12/26 07:43:45;;;;;;;;;;;2.40;99.90;;;;;;5135199;27;19916;-79
2021/12/26 07:46:11;;;;;;;;;;;2.40;99.90;;;;;;5145525;27;20022;-81
2021/12/26 07:48:37;;;;;;;;;;;2.40;99.90;;;;;;5142957;27;19912;-81
2021/12/26 07:51:04;;;;;;;;;;;2.40;99.90;;;;;;5144106;27;20400;-79
2021/12/26 07:53:30;;;;;;;;;;;2.40;99.90;;;;;;5126845;27;19964;-80
2021/12/26 07:55:55;;;;;;;;;;;2.40;99.90;;;;;;5133028;27;19976;-80
2021/12/26 07:58:21;;;;;;;;;;;2.40;99.90;;;;;;5148696;27;19954;-80
2021/12/26 08:00:46;;;;;;;;;;;2.40;99.90;;;;;;5151273;27;20329;-79
2021/12/26 08:03:12;;;;;;;;;;;2.40;99.90;;;;;;5149220;27;19919;-80
2021/12/26 08:05:37;;;;;;;;;;;2.50;99.90;;;;;;5151597;27;19911;-80
2021/12/26 08:08:03;;;;;;;;;;;2.50;99.90;;;;;;5145967;27;19935;-79
2021/12/26 08:10:28;;;;;;;;;;;2.50;99.90;;;;;;5128870;27;20364;-80
2021/12/26 08:12:54;;;;;;;;;;;2.50;99.90;;;;;;5129145;27;19915;-79
2021/12/26 08:15:20;;;;;;;;;;;2.60;99.90;;;;;;5150360;27;19960;-79
2021/12/26 08:17:45;;;;;;;;;;;2.60;99.90;;;;;;5130507;27;19919;-79
2021/12/26 08:20:11;;;;;;;;;;;2.60;99.90;;;;;;5124087;27;19934;-80
2021/12/26 08:22:36;;;;;;;;;;;2.60;99.90;;;;;;5136227;27;19911;-80
2021/12/26 08:25:02;;;;;;;;;;;2.60;99.90;;;;;;5124109;27;19922;-80
2021/12/26 08:27:28;;;;;;;;;;;2.70;99.90;;;;;;5121146;27;19918;-79
2021/12/26 08:29:53;;;;;;;;;;;2.70;99.90;;;;;;5139053;27;19911;-79
2021/12/26 08:32:19;;;;;;;;;;;2.70;99.90;;;;;;5121449;27;19912;-80
2021/12/26 08:34:45;;;;;;;;;;;2.80;99.90;;;;;;5125239;27;19911;-79
2021/12/26 08:37:11;;;;;;;;;;;2.70;99.90;;;;;;5134272;27;19952;-80
2021/12/26 08:39:37;;;;;;;;;;;2.80;99.90;;;;;;5134783;27;19911;-80
2021/12/26 08:42:03;;;;;;;;;;;2.80;99.90;;;;;;5124792;27;19921;-80
2021/12/26 08:44:29;;;;;;;;;;;2.90;99.90;;;;;;5128284;27;19970;-80
2021/12/26 08:46:54;;;;;;;;;;;2.90;99.90;;;;;;5127158;27;19915;-80
2021/12/26 08:49:20;;;;;;;;;;;2.90;99.90;;;;;;5138268;27;19918;-79
2021/12/26 08:51:46;;;;;;;;;;;2.90;99.90;;;;;;5140979;27;20000;-78
2021/12/26 08:54:12;;;;;;;;;;;3.00;99.90;;;;;;5119446;27;20260;-80
2021/12/26 08:56:38;;;;;;;;;;;3.00;99.90;;;;;;5100717;28;19915;-80
2021/12/26 08:59:04;;;;;;;;;;;3.00;99.90;;;;;;5131765;27;19908;-80
2021/12/26 09:01:30;;;;;;;;;;;3.00;99.90;;;;;;5138986;27;19912;-79
2021/12/26 09:03:55;;;;;;;;;;;3.00;99.90;;;;;;5137550;27;19923;-79
2021/12/26 09:06:21;;;;;;;;;;;3.10;99.90;;;;;;5134428;27;19916;-79
2021/12/26 09:08:47;;;;;;;;;;;3.10;99.90;;;;;;5137537;27;20342;-78
2021/12/26 09:11:12;;;;;;;;;;;3.10;99.90;;;;;;5137683;27;19994;-79
2021/12/26 09:13:37;;;;;;;;;;;3.10;99.90;;;;;;5131608;27;19919;-79
2021/12/26 09:16:03;;;;;;;;;;;3.10;99.90;;;;;;5125568;27;19911;-80
2021/12/26 09:18:29;;;;;;;;;;;3.10;99.90;;;;;;5131190;27;19915;-79
2021/12/26 09:20:54;;;;;;;;;;;3.20;92.40;;;;;;5124220;27;19971;-81
2021/12/26 09:23:20;;;;;;;;;;;3.20;64.70;;;;;;5120615;27;19930;-80
2021/12/26 09:25:45;;;;;;;;;;;3.30;64.90;;;;;;5120882;27;20316;-79
2021/12/26 09:28:11;;;;;;;;;;;3.30;46.40;;;;;;5129727;27;20340;-79
2021/12/26 09:30:37;;;;;;;;;;;3.40;10.40;;;;;;5138140;27;19919;-80
2021/12/26 09:33:03;;;;;;;;;;;3.40;1.00;;;;;;5128735;27;19915;-80
2021/12/26 09:35:29;;;;;;;;;;;3.40;1.00;;;;;;5128317;27;20378;-81
2021/12/26 09:37:55;;;;;;;;;;;3.50;1.00;;;;;;5120011;27;19936;-80
2021/12/26 09:40:20;;;;;;;;;;;3.50;1.00;;;;;;5126207;27;19912;-81
2021/12/26 09:42:46;;;;;;;;;;;3.60;1.00;;;;;;5139765;27;19922;-81
2021/12/26 09:45:13;;;;;;;;;;;3.60;1.00;;;;;;5125813;27;20049;-81
2021/12/26 09:47:39;;;;;;;;;;;3.60;1.00;;;;;;5145641;27;19907;-80
2021/12/26 09:50:08;;;;;;;;;;;3.60;1.00;;;;;;5138103;27;19912;-81
2021/12/26 09:52:34;;;;;;;;;;;3.70;1.00;;;;;;5126810;27;19939;-80
2021/12/26 09:55:00;;;;;;;;;;;3.60;1.00;;;;;;5116299;27;20409;-81
2021/12/26 09:57:27;;;;;;;;;;;3.60;1.00;;;;;;5121111;27;20629;-81
2021/12/26 09:59:53;;;;;;;;;;;3.70;1.00;;;;;;5116545;27;19912;-81
2021/12/26 10:02:19;;;;;;;;;;;3.70;1.00;;;;;;5129483;27;20430;-80
2021/12/26 10:04:48;;;;;;;;;;;3.80;1.00;;;;;;5122220;27;20391;-80
2021/12/26 10:07:15;;;;;;;;;;;3.80;1.00;;;;;;5131984;27;19911;-82
2021/12/26 10:09:42;;;;;;;;;;;3.90;1.00;;;;;;5131648;27;19912;-80
2021/12/26 10:12:09;;;;;;;;;;;4.10;1.00;;;;;;5137960;27;19915;-81
2021/12/26 10:14:37;;;;;;;;;;;4.20;1.00;;;;;;5140002;27;19959;-82
2021/12/26 10:17:05;;;;;;;;;;;4.30;99.90;;;;;;5135487;27;19932;-81
2021/12/26 10:19:35;;;;;;;;;;;4.50;99.90;;;;;;5126235;27;19918;-81
2021/12/26 10:22:01;;;;;;;;;;;4.40;41.60;;;;;;5136292;27;19907;-81
2021/12/26 10:24:28;;;;;;;;;;;4.50;4.40;;;;;;5136768;27;19938;-81
2021/12/26 10:26:57;;;;;;;;;;;4.60;1.00;;;;;;5145829;27;19908;-82
2021/12/26 10:29:23;;;;;;;;;;;4.70;1.00;;;;;;5139328;27;20379;-82
2021/12/26 10:31:53;;;;;;;;;;;4.70;99.90;;;;;;5124635;27;19911;-81
2021/12/26 10:34:29;;;;;;;;;;;4.80;1.00;;;;;;5133271;27;20411;-82
2021/12/26 10:36:56;;;;;;;;;;;4.80;99.90;;;;;;5122097;27;19907;-81
2021/12/26 10:39:23;;;;;;;;;;;4.90;1.00;;;;;;5117804;27;19916;-83
2021/12/26 10:41:50;;;;;;;;;;;4.70;99.90;;;;;;5136587;27;19983;-81
2021/12/26 10:44:23;;;;;;;;;;;4.70;99.90;;;;;;5133886;27;19915;-81
2021/12/26 10:46:49;;;;;;;;;;;4.70;99.90;;;;;;5139710;27;19912;-81
2021/12/26 10:49:29;;;;;;;;;;;4.60;99.90;;;;;;5117290;27;19908;-81
2021/12/26 10:51:54;;;;;;;;;;;4.60;1.00;;;;;;5118350;27;20011;-82
2021/12/26 10:54:25;;;;;;;;;;;4.60;1.00;;;;;;5122689;27;19912;-81
2021/12/26 10:57:05;;;;;;;;;;;4.70;1.00;;;;;;5134627;27;20424;-82
2021/12/26 10:59:31;;;;;;;;;;;4.70;1.00;;;;;;5117340;27;20414;-81
2021/12/26 11:01:56;;;;;;;;;;;4.90;1.00;;;;;;5127042;27;19954;-82
2021/12/26 11:04:25;;;;;;;;;;;4.90;1.00;;;;;;5139135;27;19911;-81
2021/12/26 11:07:04;;;;;;;;;;;5.00;1.00;;;;;;5127106;27;19911;-81
2021/12/26 11:09:29;;;;;;;;;;;5.10;99.90;;;;;;5117458;28;19911;-82
2021/12/26 11:11:58;;;;;;;;;;;5.10;99.90;;;;;;5114263;27;19934;-81
2021/12/26 11:14:24;;;;;;;;;;;5.10;1.00;;;;;;5103604;28;19911;-81
2021/12/26 11:16:50;;;;;;;;;;;5.10;99.90;;;;;;5126905;28;20002;-81
2021/12/26 11:19:15;;;;;;;;;;;5.10;1.00;;;;;;5120516;28;20401;-81
2021/12/26 11:21:41;;;;;;;;;;;4.90;1.00;;;;;;5133140;27;19931;-80
2021/12/26 11:24:07;;;;;;;;;;;5.00;99.90;;;;;;5127082;28;19919;-80
2021/12/26 11:26:32;;;;;;;;;;;5.10;99.90;;;;;;5132505;27;20551;-81
2021/12/26 11:28:58;;;;;;;;;;;5.10;1.00;;;;;;5115879;28;20357;-80
2021/12/26 11:31:25;;;;;;;;;;;5.00;6.70;;;;;;5134024;27;19951;-81
2021/12/26 11:33:56;;;;;;;;;;;5.10;99.90;;;;;;5134667;28;19923;-80
2021/12/26 11:36:22;;;;;;;;;;;5.20;99.90;;;;;;5124833;28;19922;-79
2021/12/26 11:38:48;;;;;;;;;;;5.30;1.50;;;;;;5129807;27;19917;-80
2021/12/26 11:41:20;;;;;;;;;;;5.30;1.00;;;;;;5122713;28;19919;-80
2021/12/26 11:43:48;;;;;;;;;;;5.30;1.00;;;;;;5134736;27;19936;-81
2021/12/26 11:46:23;;;;;;;;;;;5.30;1.00;;;;;;5136261;27;20287;-80
2021/12/26 11:49:06;;;;;;;;;;;5.40;1.00;;;;;;5136258;27;19915;-81
2021/12/26 11:51:31;;;;;;;;;;;5.30;1.00;;;;;;5128955;27;19926;-81
2021/12/26 11:54:15;;;;;;;;;;;5.40;1.00;;;;;;5136651;28;19911;-80
2021/12/26 11:57:10;;;;;;;;;;;5.30;17.00;;;;;;5120703;27;19911;-80
2021/12/26 11:59:36;;;;;;;;;;;5.20;99.90;;;;;;5109297;27;19930;-81
2021/12/26 12:02:01;;;;;;;;;;;5.30;99.90;;;;;;5125000;27;19915;-81
2021/12/26 12:04:27;;;;;;;;;;;5.30;99.90;;;;;;5129624;27;20001;-81
2021/12/26 12:06:55;;;;;;;;;;;5.30;99.90;;;;;;5133321;27;20372;-81
2021/12/26 12:09:36;;;;;;;;;;;5.40;99.90;;;;;;5139125;27;19911;-81
2021/12/26 12:12:02;;;;;;;;;;;5.30;99.90;;;;;;5137298;27;19923;-81
2021/12/26 12:14:43;;;;;;;;;;;5.30;99.90;;;;;;5122665;27;19908;-81
2021/12/26 12:17:13;;;;;;;;;;;5.30;99.90;;;;;;5139838;27;19961;-81
2021/12/26 12:19:58;;;;;;;;;;;5.30;99.90;;;;;;5139693;27;19908;-81
2021/12/26 12:22:23;;;;;;;;;;;5.30;99.90;;;;;;5132002;27;19961;-81
2021/12/26 12:24:51;;;;;;;;;;;5.30;99.90;;;;;;5139716;27;19915;-81
2021/12/26 12:27:20;;;;;;;;;;;5.40;99.90;;;;;;5127645;27;19919;-81
2021/12/26 12:29:47;;;;;;;;;;;5.40;99.90;;;;;;5133044;27;19920;-81
2021/12/26 12:32:14;;;;;;;;;;;5.40;99.90;;;;;;5114219;27;19924;-81
2021/12/26 12:34:57;;;;;;;;;;;5.40;99.90;;;;;;5126242;27;19973;-81
2021/12/26 12:37:31;;;;;;;;;;;5.40;99.90;;;;;;5138908;27;19912;-80
2021/12/26 12:40:09;;;;;;;;;;;5.40;99.90;;;;;;5113908;27;19912;-81
2021/12/26 12:42:35;;;;;;;;;;;5.30;99.90;;;;;;5128028;27;19916;-79
2021/12/26 12:45:01;;;;;;;;;;;5.30;99.90;;;;;;5126035;27;19918;-79
2021/12/26 12:47:27;;;;;;;;;;;5.30;99.90;;;;;;5141241;27;19912;-80
2021/12/26 12:50:01;;;;;;;;;;;5.40;99.90;;;;;;5143050;27;19915;-79
2021/12/26 12:52:39;;;;;;;;;;;5.40;99.90;;;;;;5141046;27;19919;-80
2021/12/26 12:55:07;;;;;;;;;;;5.40;99.90;;;;;;5128050;27;19927;-80
2021/12/26 12:57:34;;;;;;;;;;;5.40;99.90;;;;;;5137425;27;19916;-79
2021/12/26 13:00:00;;;;;;;;;;;5.50;99.90;;;;;;5137627;27;19912;-80
2021/12/26 13:02:30;;;;;;;;;;;5.50;99.90;;;;;;5115328;27;19923;-80
2021/12/26 13:04:55;;;;;;;;;;;5.40;99.90;;;;;;5142811;27;19911;-79
2021/12/26 13:07:25;;;;;;;;;;;5.50;99.90;;;;;;5139272;27;19962;-80
2021/12/26 13:09:52;;;;;;;;;;;5.50;99.90;;;;;;5122636;27;19911;-80
2021/12/26 13:12:18;;;;;;;;;;;5.50;99.90;;;;;;5140029;27;20006;-79
2021/12/26 13:14:49;;;;;;;;;;;5.60;97.70;;;;;;5126367;27;19939;-79
2021/12/26 13:17:31;;;;;;;;;;;5.50;99.90;;;;;;5139910;27;20309;-79
2021/12/26 13:20:06;;;;;;;;;;;5.60;99.90;;;;;;5124474;27;20268;-79
2021/12/26 13:22:38;;;;;;;;;;;5.60;99.90;;;;;;5137697;27;19919;-79
2021/12/26 13:25:05;;;;;;;;;;;5.70;99.90;;;;;;5139363;27;19915;-79
2021/12/26 13:27:31;;;;;;;;;;;5.70;20.30;;;;;;5139285;27;19923;-79
2021/12/26 13:29:56;;;;;;;;;;;5.60;1.00;;;;;;5141092;27;20006;-79
2021/12/26 13:32:30;;;;;;;;;;;5.60;99.90;;;;;;5139323;27;19915;-79
2021/12/26 13:34:56;;;;;;;;;;;5.60;99.90;;;;;;5124269;27;19972;-80
2021/12/26 13:37:21;;;;;;;;;;;5.60;1.00;;;;;;5134870;27;19916;-79
2021/12/26 13:39:54;;;;;;;;;;;5.70;1.00;;;;;;5116256;27;19921;-80
2021/12/26 13:42:20;;;;;;;;;;;5.80;1.00;;;;;;5115412;28;20004;-80
2021/12/26 13:44:45;;;;;;;;;;;5.60;99.90;;;;;;5123731;27;20339;-78
2021/12/26 13:47:11;;;;;;;;;;;5.60;99.90;;;;;;5125789;27;19915;-80
2021/12/26 13:49:36;;;;;;;;;;;5.50;99.90;;;;;;5114004;27;20512;-80
2021/12/26 13:52:02;;;;;;;;;;;5.50;1.00;;;;;;5139063;27;19937;-80
2021/12/26 13:54:31;;;;;;;;;;;5.50;1.00;;;;;;5121107;27;20625;-80
2021/12/26 13:57:01;;;;;;;;;;;5.40;1.00;;;;;;5137792;27;19912;-80
2021/12/26 13:59:29;;;;;;;;;;;5.30;1.00;;;;;;5126840;27;19915;-80
2021/12/26 14:01:55;;;;;;;;;;;5.20;1.00;;;;;;5109423;27;20127;-80
2021/12/26 14:04:23;;;;;;;;;;;5.30;1.00;;;;;;5139096;27;19915;-80
2021/12/26 14:06:49;;;;;;;;;;;5.30;99.90;;;;;;5130158;27;19922;-81
2021/12/26 14:09:14;;;;;;;;;;;5.30;99.90;;;;;;5140011;27;19995;-80
2021/12/26 14:11:40;;;;;;;;;;;5.20;99.90;;;;;;5122202;27;19916;-81
2021/12/26 14:14:07;;;;;;;;;;;5.30;99.90;;;;;;5118817;27;19911;-81
2021/12/26 14:16:34;;;;;;;;;;;5.20;99.90;;;;;;5118312;27;19937;-81
2021/12/26 14:19:03;;;;;;;;;;;5.10;99.90;;;;;;5128328;27;19918;-81
2021/12/26 14:21:29;;;;;;;;;;;5.10;99.90;;;;;;5123528;27;19923;-81
2021/12/26 14:23:56;;;;;;;;;;;5.10;99.90;;;;;;5129969;27;19919;-80
2021/12/26 14:26:27;;;;;;;;;;;5.10;99.90;;;;;;5120144;27;20601;-81
2021/12/26 14:28:58;;;;;;;;;;;5.00;99.90;;;;;;5132067;27;19957;-80
2021/12/26 14:31:31;;;;;;;;;;;5.00;99.90;;;;;;5128950;27;19923;-81
2021/12/26 14:33:57;;;;;;;;;;;5.00;99.90;;;;;;5109775;27;19947;-80
2021/12/26 14:36:23;;;;;;;;;;;5.00;99.90;;;;;;5124899;27;19948;-80
2021/12/26 14:38:51;;;;;;;;;;;5.00;1.00;;;;;;5136410;27;19915;-80